sensor_id;sensor_type;location;lat;lon;timestamp;P1;durP1;ratioP1;P2;durP2;ratioP2
54745;SDS011;40640;48.130;11.356;2022-08-04T00:02:01;4.20;;;2.40;;
54745;SDS011;40640;48.130;11.356;2022-08-04T00:06:10;4.95;;;2.13;;
54745;SDS011;40640;48.130;11.356;2022-08-04T00:10:17;2.58;;;1.60;;
54745;SDS011;40640;48.130;11.356;2022-08-04T00:14:23;3.35;;;1.63;;
54745;SDS011;40640;48.130;11.356;2022-08-04T00:18:28;2.50;;;1.77;;
54745;SDS011;40640;48.130;11.356;2022-08-04T00:22:38;1.83;;;1.73;;
54745;SDS011;40640;48.130;11.356;2022-08-04T00:26:41;4.32;;;2.08;;
54745;SDS011;40640;48.130;11.356;2022-08-04T00:30:44;1.80;;;1.70;;
54745;SDS011;40640;48.130;11.356;2022-08-04T00:34:47;3.42;;;2.40;;
54745;SDS011;40640;48.130;11.356;2022-08-04T00:38:54;3.22;;;2.70;;
54745;SDS011;40640;48.130;11.356;2022-08-04T00:43:01;2.05;;;1.73;;
54745;SDS011;40640;48.130;11.356;2022-08-04T00:47:21;3.22;;;1.85;;
54745;SDS011;40640;48.130;11.356;2022-08-04T00:51:43;2.30;;;1.92;;
54745;SDS011;40640;48.130;11.356;2022-08-04T00:56:14;3.87;;;1.97;;
54745;SDS011;40640;48.130;11.356;2022-08-04T01:00:32;1.17;;;1.17;;
54745;SDS011;40640;48.130;11.356;2022-08-04T01:04:48;3.28;;;1.38;;
54745;SDS011;40640;48.130;11.356;2022-08-04T01:09:02;6.07;;;1.60;;
54745;SDS011;40640;48.130;11.356;2022-08-04T01:13:28;3.03;;;1.90;;
54745;SDS011;40640;48.130;11.356;2022-08-04T01:17:48;2.65;;;1.58;;
54745;SDS011;40640;48.130;11.356;2022-08-04T01:22:20;2.55;;;1.80;;
54745;SDS011;40640;48.130;11.356;2022-08-04T01:26:45;2.20;;;1.42;;
54745;SDS011;40640;48.130;11.356;2022-08-04T01:31:01;2.33;;;1.73;;
54745;SDS011;40640;48.130;11.356;2022-08-04T01:35:15;1.55;;;1.45;;
54745;SDS011;40640;48.130;11.356;2022-08-04T01:39:48;1.75;;;1.42;;
54745;SDS011;40640;48.130;11.356;2022-08-04T01:43:53;2.13;;;1.58;;
54745;SDS011;40640;48.130;11.356;2022-08-04T01:47:58;2.97;;;1.60;;
54745;SDS011;40640;48.130;11.356;2022-08-04T01:52:04;3.75;;;1.77;;
54745;SDS011;40640;48.130;11.356;2022-08-04T01:56:10;1.58;;;1.48;;
54745;SDS011;40640;48.130;11.356;2022-08-04T02:00:14;3.47;;;1.95;;
54745;SDS011;40640;48.130;11.356;2022-08-04T02:04:20;2.85;;;1.63;;
54745;SDS011;40640;48.130;11.356;2022-08-04T02:08:26;3.00;;;1.67;;
54745;SDS011;40640;48.130;11.356;2022-08-04T02:12:44;3.08;;;1.70;;
54745;SDS011;40640;48.130;11.356;2022-08-04T02:16:56;1.98;;;1.77;;
54745;SDS011;40640;48.130;11.356;2022-08-04T02:21:01;1.38;;;1.33;;
54745;SDS011;40640;48.130;11.356;2022-08-04T02:25:05;2.42;;;1.40;;
54745;SDS011;40640;48.130;11.356;2022-08-04T02:29:10;1.73;;;1.60;;
54745;SDS011;40640;48.130;11.356;2022-08-04T02:33:33;2.78;;;1.50;;
54745;SDS011;40640;48.130;11.356;2022-08-04T02:37:41;3.80;;;1.83;;
54745;SDS011;40640;48.130;11.356;2022-08-04T02:41:49;1.42;;;1.33;;
54745;SDS011;40640;48.130;11.356;2022-08-04T02:45:54;3.90;;;1.95;;
54745;SDS011;40640;48.130;11.356;2022-08-04T02:49:58;2.60;;;1.75;;
54745;SDS011;40640;48.130;11.356;2022-08-04T02:54:05;2.88;;;1.70;;
54745;SDS011;40640;48.130;11.356;2022-08-04T02:58:08;2.08;;;1.88;;
54745;SDS011;40640;48.130;11.356;2022-08-04T03:02:11;2.60;;;1.70;;
54745;SDS011;40640;48.130;11.356;2022-08-04T03:06:23;2.22;;;1.73;;
54745;SDS011;40640;48.130;11.356;2022-08-04T03:11:10;2.08;;;1.88;;
54745;SDS011;40640;48.130;11.356;2022-08-04T03:15:43;1.50;;;1.40;;
54745;SDS011;40640;48.130;11.356;2022-08-04T03:30:04;1.75;;;1.65;;
54745;SDS011;40640;48.130;11.356;2022-08-04T03:34:14;5.30;;;2.30;;
54745;SDS011;40640;48.130;11.356;2022-08-04T03:38:42;3.92;;;1.45;;
54745;SDS011;40640;48.130;11.356;2022-08-04T03:48:08;2.28;;;1.58;;
54745;SDS011;40640;48.130;11.356;2022-08-04T03:52:29;3.60;;;2.23;;
54745;SDS011;40640;48.130;11.356;2022-08-04T03:57:08;2.40;;;1.92;;
54745;SDS011;40640;48.130;11.356;2022-08-04T04:11:06;2.80;;;1.85;;
54745;SDS011;40640;48.130;11.356;2022-08-04T04:15:41;2.70;;;1.80;;
54745;SDS011;40640;48.130;11.356;2022-08-04T04:19:53;2.65;;;2.10;;
54745;SDS011;40640;48.130;11.356;2022-08-04T04:33:02;2.58;;;1.65;;
54745;SDS011;40640;48.130;11.356;2022-08-04T04:37:16;1.88;;;1.75;;
54745;SDS011;40640;48.130;11.356;2022-08-04T04:41:30;3.70;;;1.88;;
54745;SDS011;40640;48.130;11.356;2022-08-04T04:45:45;2.13;;;1.92;;
54745;SDS011;40640;48.130;11.356;2022-08-04T04:49:56;1.88;;;1.67;;
54745;SDS011;40640;48.130;11.356;2022-08-04T04:54:07;1.98;;;1.77;;
54745;SDS011;40640;48.130;11.356;2022-08-04T04:58:16;1.85;;;1.75;;
54745;SDS011;40640;48.130;11.356;2022-08-04T05:02:39;4.85;;;2.10;;
54745;SDS011;40640;48.130;11.356;2022-08-04T05:07:05;5.63;;;1.98;;
54745;SDS011;40640;48.130;11.356;2022-08-04T05:16:08;2.95;;;2.28;;
54745;SDS011;40640;48.130;11.356;2022-08-04T05:20:15;1.67;;;1.58;;
54745;SDS011;40640;48.130;11.356;2022-08-04T05:24:24;2.17;;;1.98;;
54745;SDS011;40640;48.130;11.356;2022-08-04T05:28:35;1.90;;;1.80;;
54745;SDS011;40640;48.130;11.356;2022-08-04T05:32:44;5.30;;;2.55;;
54745;SDS011;40640;48.130;11.356;2022-08-04T05:36:54;2.75;;;2.40;;
54745;SDS011;40640;48.130;11.356;2022-08-04T05:41:00;5.78;;;3.83;;
54745;SDS011;40640;48.130;11.356;2022-08-04T05:45:06;7.03;;;2.97;;
54745;SDS011;40640;48.130;11.356;2022-08-04T05:49:09;2.97;;;1.90;;
54745;SDS011;40640;48.130;11.356;2022-08-04T05:53:23;2.40;;;2.20;;
54745;SDS011;40640;48.130;11.356;2022-08-04T05:57:28;2.58;;;2.10;;
54745;SDS011;40640;48.130;11.356;2022-08-04T06:01:32;3.30;;;2.00;;
54745;SDS011;40640;48.130;11.356;2022-08-04T06:05:57;3.17;;;2.45;;
54745;SDS011;40640;48.130;11.356;2022-08-04T06:10:02;2.22;;;1.83;;
54745;SDS011;40640;48.130;11.356;2022-08-04T06:14:06;2.58;;;1.58;;
54745;SDS011;40640;48.130;11.356;2022-08-04T06:18:10;0.32;;;0.32;;
54745;SDS011;40640;48.130;11.356;2022-08-04T06:22:34;0.10;;;0.10;;
54745;SDS011;40640;48.130;11.356;2022-08-04T06:26:44;0.10;;;0.10;;
54745;SDS011;40640;48.130;11.356;2022-08-04T06:34:55;0.50;;;0.20;;
54745;SDS011;40640;48.130;11.356;2022-08-04T06:39:02;0.35;;;0.35;;
54745;SDS011;40640;48.130;11.356;2022-08-04T06:43:07;0.35;;;0.35;;
54745;SDS011;40640;48.130;11.356;2022-08-04T06:47:10;0.55;;;0.55;;
54745;SDS011;40640;48.130;11.356;2022-08-04T06:51:14;0.68;;;0.63;;
54745;SDS011;40640;48.130;11.356;2022-08-04T06:55:37;0.55;;;0.32;;
54745;SDS011;40640;48.130;11.356;2022-08-04T06:59:42;0.00;;;0.00;;
54745;SDS011;40640;48.130;11.356;2022-08-04T07:03:47;0.00;;;0.00;;
54745;SDS011;40640;48.130;11.356;2022-08-04T07:07:51;0.00;;;0.00;;
54745;SDS011;40640;48.130;11.356;2022-08-04T07:11:58;0.47;;;0.25;;
54745;SDS011;40640;48.130;11.356;2022-08-04T07:16:04;0.22;;;0.22;;
54745;SDS011;40640;48.130;11.356;2022-08-04T07:20:09;0.47;;;0.38;;
54745;SDS011;40640;48.130;11.356;2022-08-04T07:24:12;0.30;;;0.30;;
54745;SDS011;40640;48.130;11.356;2022-08-04T07:28:17;0.63;;;0.63;;
54745;SDS011;40640;48.130;11.356;2022-08-04T07:32:21;1.48;;;0.85;;
54745;SDS011;40640;48.130;11.356;2022-08-04T07:36:25;1.45;;;1.10;;
54745;SDS011;40640;48.130;11.356;2022-08-04T07:40:32;1.38;;;1.27;;
54745;SDS011;40640;48.130;11.356;2022-08-04T07:44:37;2.67;;;1.90;;
54745;SDS011;40640;48.130;11.356;2022-08-04T07:48:44;2.03;;;1.58;;
54745;SDS011;40640;48.130;11.356;2022-08-04T07:52:47;3.08;;;1.58;;
54745;SDS011;40640;48.130;11.356;2022-08-04T07:57:10;2.15;;;1.95;;
54745;SDS011;40640;48.130;11.356;2022-08-04T08:01:33;2.63;;;2.17;;
54745;SDS011;40640;48.130;11.356;2022-08-04T08:05:38;3.05;;;2.25;;
54745;SDS011;40640;48.130;11.356;2022-08-04T08:10:01;3.83;;;1.95;;
54745;SDS011;40640;48.130;11.356;2022-08-04T08:14:04;4.47;;;1.70;;
54745;SDS011;40640;48.130;11.356;2022-08-04T08:18:08;2.13;;;1.55;;
54745;SDS011;40640;48.130;11.356;2022-08-04T08:22:13;2.85;;;1.38;;
54745;SDS011;40640;48.130;11.356;2022-08-04T08:26:16;3.03;;;1.75;;
54745;SDS011;40640;48.130;11.356;2022-08-04T08:30:18;1.98;;;1.77;;
54745;SDS011;40640;48.130;11.356;2022-08-04T08:34:21;8.52;;;1.70;;
54745;SDS011;40640;48.130;11.356;2022-08-04T08:38:39;3.03;;;1.83;;
54745;SDS011;40640;48.130;11.356;2022-08-04T08:42:53;1.50;;;1.40;;
54745;SDS011;40640;48.130;11.356;2022-08-04T08:47:33;3.25;;;1.02;;
54745;SDS011;40640;48.130;11.356;2022-08-04T08:52:03;7.60;;;1.45;;
54745;SDS011;40640;48.130;11.356;2022-08-04T08:56:45;4.30;;;1.33;;
54745;SDS011;40640;48.130;11.356;2022-08-04T09:01:00;2.00;;;1.48;;
54745;SDS011;40640;48.130;11.356;2022-08-04T09:05:18;1.30;;;1.00;;
54745;SDS011;40640;48.130;11.356;2022-08-04T09:09:40;1.85;;;1.20;;
54745;SDS011;40640;48.130;11.356;2022-08-04T09:13:53;5.18;;;0.75;;
54745;SDS011;40640;48.130;11.356;2022-08-04T09:18:00;3.13;;;0.75;;
54745;SDS011;40640;48.130;11.356;2022-08-04T09:22:08;0.75;;;0.73;;
54745;SDS011;40640;48.130;11.356;2022-08-04T09:26:18;0.85;;;0.85;;
54745;SDS011;40640;48.130;11.356;2022-08-04T09:30:28;1.55;;;0.88;;
54745;SDS011;40640;48.130;11.356;2022-08-04T09:34:40;0.98;;;0.70;;
54745;SDS011;40640;48.130;11.356;2022-08-04T09:39:13;0.63;;;0.63;;
54745;SDS011;40640;48.130;11.356;2022-08-04T09:43:28;0.50;;;0.50;;
54745;SDS011;40640;48.130;11.356;2022-08-04T09:47:59;0.50;;;0.50;;
54745;SDS011;40640;48.130;11.356;2022-08-04T09:52:10;0.40;;;0.40;;
54745;SDS011;40640;48.130;11.356;2022-08-04T09:56:26;0.43;;;0.43;;
54745;SDS011;40640;48.130;11.356;2022-08-04T10:00:35;0.30;;;0.30;;
54745;SDS011;40640;48.130;11.356;2022-08-04T10:04:46;0.20;;;0.20;;
54745;SDS011;40640;48.130;11.356;2022-08-04T10:09:07;0.20;;;0.20;;
54745;SDS011;40640;48.130;11.356;2022-08-04T10:13:31;0.20;;;0.20;;
54745;SDS011;40640;48.130;11.356;2022-08-04T10:17:50;0.30;;;0.22;;
54745;SDS011;40640;48.130;11.356;2022-08-04T10:22:07;1.15;;;0.38;;
54745;SDS011;40640;48.130;11.356;2022-08-04T10:26:32;0.10;;;0.10;;
54745;SDS011;40640;48.130;11.356;2022-08-04T10:30:44;0.20;;;0.20;;
54745;SDS011;40640;48.130;11.356;2022-08-04T10:39:05;0.38;;;0.38;;
54745;SDS011;40640;48.130;11.356;2022-08-04T10:43:38;1.27;;;0.40;;
54745;SDS011;40640;48.130;11.356;2022-08-04T10:47:50;1.75;;;0.30;;
54745;SDS011;40640;48.130;11.356;2022-08-04T10:52:03;0.10;;;0.10;;
54745;SDS011;40640;48.130;11.356;2022-08-04T10:56:12;0.10;;;0.10;;
54745;SDS011;40640;48.130;11.356;2022-08-04T11:00:20;0.10;;;0.10;;
54745;SDS011;40640;48.130;11.356;2022-08-04T11:04:28;0.10;;;0.10;;
54745;SDS011;40640;48.130;11.356;2022-08-04T11:08:39;0.00;;;0.00;;
54745;SDS011;40640;48.130;11.356;2022-08-04T11:12:47;0.22;;;0.03;;
54745;SDS011;40640;48.130;11.356;2022-08-04T11:16:56;0.08;;;0.08;;
54745;SDS011;40640;48.130;11.356;2022-08-04T11:21:05;0.03;;;0.03;;
54745;SDS011;40640;48.130;11.356;2022-08-04T11:25:16;0.20;;;0.00;;
54745;SDS011;40640;48.130;11.356;2022-08-04T11:29:25;0.00;;;0.00;;
54745;SDS011;40640;48.130;11.356;2022-08-04T11:33:37;0.00;;;0.00;;
54745;SDS011;40640;48.130;11.356;2022-08-04T11:37:48;0.30;;;0.30;;
54745;SDS011;40640;48.130;11.356;2022-08-04T11:42:04;1.23;;;1.23;;
54745;SDS011;40640;48.130;11.356;2022-08-04T11:46:14;2.97;;;2.88;;
54745;SDS011;40640;48.130;11.356;2022-08-04T11:54:30;14.02;;;13.43;;
54745;SDS011;40640;48.130;11.356;2022-08-04T11:58:35;18.15;;;17.35;;
54745;SDS011;40640;48.130;11.356;2022-08-04T12:02:49;20.13;;;19.23;;
54745;SDS011;40640;48.130;11.356;2022-08-04T12:07:12;21.20;;;20.30;;
54745;SDS011;40640;48.130;11.356;2022-08-04T12:11:45;23.15;;;22.15;;
54745;SDS011;40640;48.130;11.356;2022-08-04T12:15:57;22.65;;;21.65;;
54745;SDS011;40640;48.130;11.356;2022-08-04T12:20:06;25.65;;;24.55;;
54745;SDS011;40640;48.130;11.356;2022-08-04T12:24:34;23.55;;;22.55;;
54745;SDS011;40640;48.130;11.356;2022-08-04T12:28:43;24.05;;;22.98;;
54745;SDS011;40640;48.130;11.356;2022-08-04T12:33:09;21.25;;;20.35;;
54745;SDS011;40640;48.130;11.356;2022-08-04T12:37:22;19.05;;;18.25;;
54745;SDS011;40640;48.130;11.356;2022-08-04T12:41:31;16.30;;;15.60;;
54745;SDS011;40640;48.130;11.356;2022-08-04T12:45:43;14.60;;;14.00;;
54745;SDS011;40640;48.130;11.356;2022-08-04T12:49:49;14.43;;;13.82;;
54745;SDS011;40640;48.130;11.356;2022-08-04T12:54:02;10.52;;;10.13;;
54745;SDS011;40640;48.130;11.356;2022-08-04T12:58:10;10.43;;;10.02;;
54745;SDS011;40640;48.130;11.356;2022-08-04T13:02:38;8.45;;;8.15;;
54745;SDS011;40640;48.130;11.356;2022-08-04T13:06:44;6.20;;;6.00;;
54745;SDS011;40640;48.130;11.356;2022-08-04T13:10:56;5.15;;;4.97;;
54745;SDS011;40640;48.130;11.356;2022-08-04T13:15:05;4.40;;;4.30;;
54745;SDS011;40640;48.130;11.356;2022-08-04T13:19:18;3.90;;;3.80;;
54745;SDS011;40640;48.130;11.356;2022-08-04T13:23:21;2.20;;;2.20;;
54745;SDS011;40640;48.130;11.356;2022-08-04T13:27:49;1.65;;;1.65;;
54745;SDS011;40640;48.130;11.356;2022-08-04T13:31:58;1.48;;;1.48;;
54745;SDS011;40640;48.130;11.356;2022-08-04T13:36:02;1.40;;;1.40;;
54745;SDS011;40640;48.130;11.356;2022-08-04T13:40:08;1.13;;;1.13;;
54745;SDS011;40640;48.130;11.356;2022-08-04T13:44:17;1.00;;;1.00;;
54745;SDS011;40640;48.130;11.356;2022-08-04T13:48:21;1.00;;;1.00;;
54745;SDS011;40640;48.130;11.356;2022-08-04T13:52:33;0.60;;;0.60;;
54745;SDS011;40640;48.130;11.356;2022-08-04T13:56:37;0.55;;;0.55;;
54745;SDS011;40640;48.130;11.356;2022-08-04T14:00:45;0.40;;;0.40;;
54745;SDS011;40640;48.130;11.356;2022-08-04T14:04:53;0.35;;;0.35;;
54745;SDS011;40640;48.130;11.356;2022-08-04T14:08:58;0.10;;;0.10;;
54745;SDS011;40640;48.130;11.356;2022-08-04T14:13:03;0.10;;;0.10;;
54745;SDS011;40640;48.130;11.356;2022-08-04T14:17:09;0.10;;;0.10;;
54745;SDS011;40640;48.130;11.356;2022-08-04T14:21:21;0.00;;;0.00;;
54745;SDS011;40640;48.130;11.356;2022-08-04T14:25:23;0.00;;;0.00;;
54745;SDS011;40640;48.130;11.356;2022-08-04T14:29:36;0.00;;;0.00;;
54745;SDS011;40640;48.130;11.356;2022-08-04T14:33:43;0.00;;;0.00;;
54745;SDS011;40640;48.130;11.356;2022-08-04T14:38:05;0.10;;;0.10;;
54745;SDS011;40640;48.130;11.356;2022-08-04T14:42:09;0.00;;;0.00;;
54745;SDS011;40640;48.130;11.356;2022-08-04T14:46:12;0.00;;;0.00;;
54745;SDS011;40640;48.130;11.356;2022-08-04T14:50:16;0.00;;;0.00;;
54745;SDS011;40640;48.130;11.356;2022-08-04T14:54:24;0.00;;;0.00;;
54745;SDS011;40640;48.130;11.356;2022-08-04T14:58:29;0.00;;;0.00;;
54745;SDS011;40640;48.130;11.356;2022-08-04T15:02:39;0.00;;;0.00;;
54745;SDS011;40640;48.130;11.356;2022-08-04T15:06:45;0.00;;;0.00;;
54745;SDS011;40640;48.130;11.356;2022-08-04T15:10:48;0.00;;;0.00;;
54745;SDS011;40640;48.130;11.356;2022-08-04T15:14:53;0.00;;;0.00;;
54745;SDS011;40640;48.130;11.356;2022-08-04T15:19:09;0.00;;;0.00;;
54745;SDS011;40640;48.130;11.356;2022-08-04T15:23:14;0.00;;;0.00;;
54745;SDS011;40640;48.130;11.356;2022-08-04T15:27:17;0.00;;;0.00;;
54745;SDS011;40640;48.130;11.356;2022-08-04T15:31:22;0.00;;;0.00;;
54745;SDS011;40640;48.130;11.356;2022-08-04T15:35:46;0.00;;;0.00;;
54745;SDS011;40640;48.130;11.356;2022-08-04T15:39:52;0.00;;;0.00;;
54745;SDS011;40640;48.130;11.356;2022-08-04T15:44:10;0.38;;;0.00;;
54745;SDS011;40640;48.130;11.356;2022-08-04T15:48:29;0.00;;;0.00;;
54745;SDS011;40640;48.130;11.356;2022-08-04T15:52:58;0.00;;;0.00;;
54745;SDS011;40640;48.130;11.356;2022-08-04T15:57:14;0.00;;;0.00;;
54745;SDS011;40640;48.130;11.356;2022-08-04T16:01:17;0.00;;;0.00;;
54745;SDS011;40640;48.130;11.356;2022-08-04T16:09:47;0.00;;;0.00;;
54745;SDS011;40640;48.130;11.356;2022-08-04T16:14:06;0.00;;;0.00;;
54745;SDS011;40640;48.130;11.356;2022-08-04T16:18:10;0.00;;;0.00;;
54745;SDS011;40640;48.130;11.356;2022-08-04T16:22:34;0.00;;;0.00;;
54745;SDS011;40640;48.130;11.356;2022-08-04T16:26:40;0.00;;;0.00;;
54745;SDS011;40640;48.130;11.356;2022-08-04T16:30:59;0.00;;;0.00;;
54745;SDS011;40640;48.130;11.356;2022-08-04T16:35:03;0.00;;;0.00;;
54745;SDS011;40640;48.130;11.356;2022-08-04T16:39:19;0.00;;;0.00;;
54745;SDS011;40640;48.130;11.356;2022-08-04T16:43:22;0.00;;;0.00;;
54745;SDS011;40640;48.130;11.356;2022-08-04T16:52:07;0.00;;;0.00;;
54745;SDS011;40640;48.130;11.356;2022-08-04T16:56:14;0.00;;;0.00;;
54745;SDS011;40640;48.130;11.356;2022-08-04T17:00:26;0.00;;;0.00;;
54745;SDS011;40640;48.130;11.356;2022-08-04T17:04:33;0.00;;;0.00;;
54745;SDS011;40640;48.130;11.356;2022-08-04T17:08:36;0.00;;;0.00;;
54745;SDS011;40640;48.130;11.356;2022-08-04T17:12:40;0.00;;;0.00;;
54745;SDS011;40640;48.130;11.356;2022-08-04T17:16:43;0.00;;;0.00;;
54745;SDS011;40640;48.130;11.356;2022-08-04T17:20:47;0.00;;;0.00;;
54745;SDS011;40640;48.130;11.356;2022-08-04T17:25:02;0.10;;;0.10;;
54745;SDS011;40640;48.130;11.356;2022-08-04T17:29:05;0.00;;;0.00;;
54745;SDS011;40640;48.130;11.356;2022-08-04T17:33:11;0.00;;;0.00;;
54745;SDS011;40640;48.130;11.356;2022-08-04T17:37:17;0.00;;;0.00;;
54745;SDS011;40640;48.130;11.356;2022-08-04T17:41:42;0.00;;;0.00;;
54745;SDS011;40640;48.130;11.356;2022-08-04T17:50:30;0.00;;;0.00;;
54745;SDS011;40640;48.130;11.356;2022-08-04T17:54:38;0.00;;;0.00;;
54745;SDS011;40640;48.130;11.356;2022-08-04T17:58:43;0.00;;;0.00;;
54745;SDS011;40640;48.130;11.356;2022-08-04T18:02:53;0.00;;;0.00;;
54745;SDS011;40640;48.130;11.356;2022-08-04T18:06:57;0.10;;;0.10;;
54745;SDS011;40640;48.130;11.356;2022-08-04T18:11:04;0.00;;;0.00;;
54745;SDS011;40640;48.130;11.356;2022-08-04T18:15:21;0.00;;;0.00;;
54745;SDS011;40640;48.130;11.356;2022-08-04T18:19:49;0.00;;;0.00;;
54745;SDS011;40640;48.130;11.356;2022-08-04T18:23:55;0.00;;;0.00;;
54745;SDS011;40640;48.130;11.356;2022-08-04T18:28:03;0.08;;;0.08;;
54745;SDS011;40640;48.130;11.356;2022-08-04T18:32:14;0.17;;;0.17;;
54745;SDS011;40640;48.130;11.356;2022-08-04T18:36:20;0.20;;;0.20;;
54745;SDS011;40640;48.130;11.356;2022-08-04T18:40:37;1.17;;;0.20;;
54745;SDS011;40640;48.130;11.356;2022-08-04T18:44:55;0.20;;;0.20;;
54745;SDS011;40640;48.130;11.356;2022-08-04T18:49:00;1.02;;;0.30;;
54745;SDS011;40640;48.130;11.356;2022-08-04T18:53:04;0.28;;;0.20;;
54745;SDS011;40640;48.130;11.356;2022-08-04T18:57:07;0.28;;;0.28;;
54745;SDS011;40640;48.130;11.356;2022-08-04T19:01:31;0.57;;;0.38;;
54745;SDS011;40640;48.130;11.356;2022-08-04T19:05:55;1.38;;;0.55;;
54745;SDS011;40640;48.130;11.356;2022-08-04T19:09:58;0.63;;;0.63;;
54745;SDS011;40640;48.130;11.356;2022-08-04T19:14:02;1.55;;;0.85;;
54745;SDS011;40640;48.130;11.356;2022-08-04T19:18:07;1.08;;;0.68;;
54745;SDS011;40640;48.130;11.356;2022-08-04T19:22:10;1.15;;;0.70;;
54745;SDS011;40640;48.130;11.356;2022-08-04T19:26:34;2.42;;;1.55;;
54745;SDS011;40640;48.130;11.356;2022-08-04T19:30:39;4.35;;;1.27;;
54745;SDS011;40640;48.130;11.356;2022-08-04T19:34:44;7.63;;;2.05;;
54745;SDS011;40640;48.130;11.356;2022-08-04T19:38:50;10.13;;;2.22;;
54745;SDS011;40640;48.130;11.356;2022-08-04T19:42:53;9.60;;;1.88;;
54745;SDS011;40640;48.130;11.356;2022-08-04T19:47:12;12.20;;;2.28;;
54745;SDS011;40640;48.130;11.356;2022-08-04T19:51:36;21.58;;;2.55;;
54745;SDS011;40640;48.130;11.356;2022-08-04T19:55:44;11.10;;;2.05;;
54745;SDS011;40640;48.130;11.356;2022-08-04T19:59:50;3.13;;;2.40;;
54745;SDS011;40640;48.130;11.356;2022-08-04T20:03:55;12.27;;;2.20;;
54745;SDS011;40640;48.130;11.356;2022-08-04T20:08:12;5.10;;;2.00;;
54745;SDS011;40640;48.130;11.356;2022-08-04T20:12:15;7.15;;;2.72;;
54745;SDS011;40640;48.130;11.356;2022-08-04T20:16:18;3.13;;;1.95;;
54745;SDS011;40640;48.130;11.356;2022-08-04T20:20:31;2.00;;;1.58;;
54745;SDS011;40640;48.130;11.356;2022-08-04T20:24:36;12.93;;;2.10;;
54745;SDS011;40640;48.130;11.356;2022-08-04T20:28:52;5.47;;;3.17;;
54745;SDS011;40640;48.130;11.356;2022-08-04T20:32:56;3.67;;;2.60;;
54745;SDS011;40640;48.130;11.356;2022-08-04T20:37:01;4.53;;;2.55;;
54745;SDS011;40640;48.130;11.356;2022-08-04T20:41:05;3.20;;;2.22;;
54745;SDS011;40640;48.130;11.356;2022-08-04T20:45:09;7.03;;;2.90;;
54745;SDS011;40640;48.130;11.356;2022-08-04T20:49:17;3.80;;;2.75;;
54745;SDS011;40640;48.130;11.356;2022-08-04T20:53:20;3.97;;;2.38;;
54745;SDS011;40640;48.130;11.356;2022-08-04T20:57:44;5.13;;;2.80;;
54745;SDS011;40640;48.130;11.356;2022-08-04T21:01:50;5.40;;;3.53;;
54745;SDS011;40640;48.130;11.356;2022-08-04T21:05:54;4.85;;;3.28;;
54745;SDS011;40640;48.130;11.356;2022-08-04T21:09:57;5.68;;;2.83;;
54745;SDS011;40640;48.130;11.356;2022-08-04T21:14:01;4.25;;;2.97;;
54745;SDS011;40640;48.130;11.356;2022-08-04T21:18:06;4.35;;;2.95;;
54745;SDS011;40640;48.130;11.356;2022-08-04T21:22:12;4.85;;;3.35;;
54745;SDS011;40640;48.130;11.356;2022-08-04T21:26:30;3.97;;;3.30;;
54745;SDS011;40640;48.130;11.356;2022-08-04T21:30:34;2.90;;;2.65;;
54745;SDS011;40640;48.130;11.356;2022-08-04T21:34:56;2.78;;;2.47;;
54745;SDS011;40640;48.130;11.356;2022-08-04T21:39:05;5.10;;;3.42;;
54745;SDS011;40640;48.130;11.356;2022-08-04T21:43:11;3.72;;;3.22;;
54745;SDS011;40640;48.130;11.356;2022-08-04T21:47:17;4.47;;;2.67;;
54745;SDS011;40640;48.130;11.356;2022-08-04T21:51:40;5.55;;;3.00;;
54745;SDS011;40640;48.130;11.356;2022-08-04T21:56:03;3.28;;;2.63;;
54745;SDS011;40640;48.130;11.356;2022-08-04T22:00:09;4.60;;;3.30;;
54745;SDS011;40640;48.130;11.356;2022-08-04T22:04:21;3.22;;;2.95;;
54745;SDS011;40640;48.130;11.356;2022-08-04T22:08:24;3.67;;;2.65;;
54745;SDS011;40640;48.130;11.356;2022-08-04T22:12:30;3.60;;;2.85;;
54745;SDS011;40640;48.130;11.356;2022-08-04T22:16:34;4.55;;;2.75;;
54745;SDS011;40640;48.130;11.356;2022-08-04T22:20:41;3.80;;;2.78;;
54745;SDS011;40640;48.130;11.356;2022-08-04T22:24:45;2.78;;;2.53;;
54745;SDS011;40640;48.130;11.356;2022-08-04T22:28:48;3.40;;;3.10;;
54745;SDS011;40640;48.130;11.356;2022-08-04T22:32:52;3.53;;;3.08;;
54745;SDS011;40640;48.130;11.356;2022-08-04T22:36:56;5.03;;;3.33;;
54745;SDS011;40640;48.130;11.356;2022-08-04T22:41:01;7.03;;;3.53;;
54745;SDS011;40640;48.130;11.356;2022-08-04T22:45:05;6.43;;;2.97;;
54745;SDS011;40640;48.130;11.356;2022-08-04T22:49:11;3.17;;;2.92;;
54745;SDS011;40640;48.130;11.356;2022-08-04T22:53:16;4.07;;;3.15;;
54745;SDS011;40640;48.130;11.356;2022-08-04T22:57:20;4.60;;;2.72;;
54745;SDS011;40640;48.130;11.356;2022-08-04T23:01:43;4.10;;;3.10;;
54745;SDS011;40640;48.130;11.356;2022-08-04T23:06:02;8.65;;;3.00;;
54745;SDS011;40640;48.130;11.356;2022-08-04T23:10:08;4.40;;;3.40;;
54745;SDS011;40640;48.130;11.356;2022-08-04T23:14:11;3.20;;;2.88;;
54745;SDS011;40640;48.130;11.356;2022-08-04T23:18:14;4.88;;;3.63;;
54745;SDS011;40640;48.130;11.356;2022-08-04T23:22:17;5.35;;;3.38;;
54745;SDS011;40640;48.130;11.356;2022-08-04T23:26:41;3.22;;;2.90;;
54745;SDS011;40640;48.130;11.356;2022-08-04T23:30:45;4.50;;;3.40;;
54745;SDS011;40640;48.130;11.356;2022-08-04T23:34:48;7.30;;;3.80;;
54745;SDS011;40640;48.130;11.356;2022-08-04T23:38:50;3.97;;;3.35;;
54745;SDS011;40640;48.130;11.356;2022-08-04T23:42:55;6.18;;;3.60;;
54745;SDS011;40640;48.130;11.356;2022-08-04T23:46:58;3.83;;;3.42;;
54745;SDS011;40640;48.130;11.356;2022-08-04T23:51:02;4.30;;;3.30;;
54745;SDS011;40640;48.130;11.356;2022-08-04T23:55:14;4.25;;;3.15;;
54745;SDS011;40640;48.130;11.356;2022-08-04T23:59:22;5.55;;;3.60;;
